TimeMDT,TemperatureF,Dew PointF,Humidity,Sea Level PressureIn,VisibilityMPH,Wind Direction,Wind SpeedMPH,Gust SpeedMPH,PrecipitationIn,Events,Conditions,WindDirDegrees,DateUTC
12:15 AM,59.0,26.6,29,30.36,10.0,ESE,4.6,-,N/A,,Clear,120,2013-06-10 06:15:00
12:35 AM,59.0,26.6,29,30.35,10.0,SE,6.9,-,N/A,,Clear,140,2013-06-10 06:35:00
12:55 AM,57.2,26.6,31,30.35,10.0,ESE,5.8,-,N/A,,Clear,120,2013-06-10 06:55:00
1:15 AM,55.4,26.6,33,30.35,10.0,SE,6.9,-,N/A,,Clear,130,2013-06-10 07:15:00
1:35 AM,57.2,26.6,31,30.35,10.0,ESE,5.8,-,N/A,,Clear,120,2013-06-10 07:35:00
1:55 AM,57.2,26.6,31,30.35,10.0,SE,6.9,-,N/A,,Clear,130,2013-06-10 07:55:00
2:15 AM,55.4,26.6,33,30.34,10.0,SE,5.8,-,N/A,,Clear,130,2013-06-10 08:15:00
2:35 AM,55.4,26.6,33,30.34,10.0,ESE,6.9,-,N/A,,Clear,120,2013-06-10 08:35:00
2:55 AM,55.4,26.6,33,30.34,10.0,SE,8.1,-,N/A,,Clear,130,2013-06-10 08:55:00
3:15 AM,53.6,26.6,35,30.34,10.0,ESE,8.1,-,N/A,,Clear,110,2013-06-10 09:15:00
3:35 AM,53.6,26.6,35,30.34,10.0,SE,6.9,-,N/A,,Clear,130,2013-06-10 09:35:00
3:55 AM,55.4,26.6,33,30.34,10.0,SE,8.1,-,N/A,,Clear,140,2013-06-10 09:55:00
4:15 AM,53.6,26.6,35,30.33,10.0,ESE,9.2,-,N/A,,Clear,120,2013-06-10 10:15:00
4:35 AM,53.6,26.6,35,30.33,10.0,ESE,8.1,-,N/A,,Clear,120,2013-06-10 10:35:00
4:55 AM,53.6,26.6,35,30.33,10.0,ESE,5.8,-,N/A,,Clear,120,2013-06-10 10:55:00
5:15 AM,53.6,26.6,35,30.34,10.0,ESE,6.9,-,N/A,,Clear,120,2013-06-10 11:15:00
5:35 AM,55.4,24.8,31,30.34,10.0,SE,8.1,-,N/A,,Clear,140,2013-06-10 11:35:00
5:55 AM,55.4,24.8,31,30.34,10.0,ESE,6.9,-,N/A,,Clear,120,2013-06-10 11:55:00
6:15 AM,53.6,24.8,33,30.34,10.0,SE,6.9,-,N/A,,Clear,140,2013-06-10 12:15:00
6:35 AM,53.6,24.8,33,30.35,10.0,SE,6.9,-,N/A,,Clear,130,2013-06-10 12:35:00
6:55 AM,53.6,26.6,35,30.35,10.0,ESE,5.8,-,N/A,,Clear,110,2013-06-10 12:55:00
7:15 AM,59.0,26.6,29,30.36,10.0,ESE,5.8,-,N/A,,Clear,120,2013-06-10 13:15:00
7:35 AM,59.0,26.6,29,30.36,10.0,ESE,4.6,-,N/A,,Clear,110,2013-06-10 13:35:00
7:55 AM,60.8,26.6,27,30.36,10.0,Calm,Calm,-,N/A,,Clear,0,2013-06-10 13:55:00
8:15 AM,62.6,28.4,27,30.36,10.0,SE,3.5,-,N/A,,Clear,140,2013-06-10 14:15:00
8:35 AM,64.4,26.6,24,30.36,10.0,East,6.9,-,N/A,,Clear,100,2013-06-10 14:35:00
8:55 AM,68.0,26.6,21,30.37,10.0,Calm,Calm,-,N/A,,Clear,0,2013-06-10 14:55:00
9:15 AM,69.8,30.2,23,30.36,10.0,Calm,Calm,-,N/A,,Clear,0,2013-06-10 15:15:00
9:35 AM,71.6,30.2,22,30.36,10.0,Calm,Calm,-,N/A,,Clear,0,2013-06-10 15:35:00
9:55 AM,73.4,24.8,16,30.36,10.0,Calm,Calm,-,N/A,,Clear,0,2013-06-10 15:55:00
10:15 AM,77.0,23.0,13,30.36,10.0,SE,4.6,-,N/A,,Clear,140,2013-06-10 16:15:00
10:35 AM,77.0,19.4,12,30.36,10.0,South,5.8,-,N/A,,Clear,170,2013-06-10 16:35:00
10:55 AM,77.0,19.4,12,30.36,10.0,WSW,5.8,-,N/A,,Clear,240,2013-06-10 16:55:00
11:15 AM,78.8,17.6,10,30.35,10.0,SSW,13.8,23.0,N/A,,Clear,210,2013-06-10 17:15:00
11:35 AM,77.0,17.6,11,30.36,10.0,SW,9.2,21.9,N/A,,Clear,230,2013-06-10 17:35:00
11:55 AM,77.0,17.6,11,30.35,10.0,SSW,10.4,23.0,N/A,,Clear,210,2013-06-10 17:55:00
12:15 PM,78.8,19.4,11,30.35,10.0,South,11.5,24.2,N/A,,Clear,190,2013-06-10 18:15:00
12:35 PM,78.8,19.4,11,30.35,10.0,West,10.4,28.8,N/A,,Clear,260,2013-06-10 18:35:00
12:55 PM,78.8,19.4,11,30.34,10.0,WSW,16.1,26.5,N/A,,Clear,240,2013-06-10 18:55:00
1:15 PM,78.8,19.4,11,30.34,10.0,SW,16.1,27.6,N/A,,Clear,220,2013-06-10 19:15:00
1:35 PM,77.0,19.4,12,30.34,10.0,SW,10.4,21.9,N/A,,Clear,230,2013-06-10 19:35:00
1:55 PM,78.8,21.2,12,30.34,10.0,SSE,9.2,19.6,N/A,,Clear,160,2013-06-10 19:55:00
2:15 PM,78.8,21.2,12,30.33,10.0,South,8.1,20.7,N/A,,Clear,170,2013-06-10 20:15:00
2:35 PM,77.0,21.2,12,30.33,10.0,ESE,4.6,26.5,N/A,,Clear,120,2013-06-10 20:35:00
2:55 PM,78.8,19.4,11,30.32,10.0,South,12.7,28.8,N/A,,Clear,190,2013-06-10 20:55:00
3:15 PM,78.8,21.2,12,30.31,10.0,SSW,12.7,17.3,N/A,,Clear,210,2013-06-10 21:15:00
3:35 PM,80.6,21.2,11,30.31,10.0,SW,10.4,19.6,N/A,,Clear,230,2013-06-10 21:35:00
3:55 PM,78.8,21.2,12,30.30,10.0,SW,8.1,26.5,N/A,,Clear,230,2013-06-10 21:55:00
4:15 PM,80.6,21.2,11,30.29,10.0,South,6.9,18.4,N/A,,Clear,190,2013-06-10 22:15:00
4:35 PM,78.8,21.2,12,30.29,10.0,South,10.4,28.8,N/A,,Clear,190,2013-06-10 22:35:00
4:55 PM,80.6,21.2,11,30.29,10.0,WSW,10.4,18.4,N/A,,Clear,240,2013-06-10 22:55:00
5:15 PM,78.8,19.4,11,30.29,10.0,WSW,12.7,32.2,N/A,,Clear,240,2013-06-10 23:15:00
5:35 PM,78.8,21.2,12,30.28,10.0,South,10.4,23.0,N/A,,Clear,190,2013-06-10 23:35:00
5:55 PM,78.8,21.2,12,30.28,10.0,WSW,13.8,24.2,N/A,,Clear,240,2013-06-10 23:55:00
6:15 PM,78.8,19.4,11,30.28,10.0,SW,16.1,29.9,N/A,,Clear,220,2013-06-11 00:15:00
6:35 PM,77.0,19.4,12,30.27,10.0,SSW,16.1,27.6,N/A,,Clear,210,2013-06-11 00:35:00
6:55 PM,77.0,19.4,12,30.28,10.0,SW,15.0,31.1,N/A,,Clear,220,2013-06-11 00:55:00
7:15 PM,77.0,19.4,12,30.27,10.0,SSW,17.3,28.8,N/A,,Clear,210,2013-06-11 01:15:00
7:35 PM,75.2,19.4,12,30.27,10.0,SW,12.7,25.3,N/A,,Clear,220,2013-06-11 01:35:00
7:55 PM,75.2,19.4,12,30.28,10.0,SSW,8.1,-,N/A,,Clear,210,2013-06-11 01:55:00
8:15 PM,73.4,19.4,13,30.28,10.0,WSW,13.8,24.2,N/A,,Clear,240,2013-06-11 02:15:00
8:35 PM,73.4,17.6,12,30.29,10.0,SW,15.0,21.9,N/A,,Clear,220,2013-06-11 02:35:00
8:55 PM,71.6,17.6,13,30.29,10.0,SW,10.4,18.4,N/A,,Clear,230,2013-06-11 02:55:00
9:15 PM,71.6,17.6,13,30.30,10.0,SW,8.1,-,N/A,,Clear,230,2013-06-11 03:15:00
9:35 PM,71.6,15.8,12,30.30,10.0,SW,4.6,-,N/A,,Clear,220,2013-06-11 03:35:00
9:55 PM,69.8,17.6,14,30.31,10.0,Calm,Calm,-,N/A,,Clear,0,2013-06-11 03:55:00
10:15 PM,68.0,17.6,15,30.32,10.0,South,4.6,-,N/A,,Clear,170,2013-06-11 04:15:00
10:35 PM,69.8,15.8,13,30.33,10.0,SW,9.2,16.1,N/A,,Clear,230,2013-06-11 04:35:00
10:55 PM,68.0,15.8,13,30.33,10.0,ESE,5.8,-,N/A,,Clear,120,2013-06-11 04:55:00
11:15 PM,68.0,17.6,15,30.33,10.0,East,4.6,-,N/A,,Clear,100,2013-06-11 05:15:00
11:35 PM,64.4,17.6,16,30.33,10.0,Calm,Calm,-,N/A,,Clear,0,2013-06-11 05:35:00
11:55 PM,64.4,17.6,16,30.33,10.0,Calm,Calm,-,N/A,,Clear,0,2013-06-11 05:55:00